sensor_id;sensor_type;location;lat;lon;timestamp;temperature;humidity
21744;DHT22;11034;48.556;9.342;2023-02-15T05:47:33;-1.30;99.90
21744;DHT22;11034;48.556;9.342;2023-02-15T05:50:01;-1.30;99.90
21744;DHT22;11034;48.556;9.342;2023-02-15T05:52:29;-1.00;99.90
21744;DHT22;11034;48.556;9.342;2023-02-15T05:54:57;-0.90;99.90
21744;DHT22;11034;48.556;9.342;2023-02-15T05:57:27;-0.90;99.90
21744;DHT22;11034;48.556;9.342;2023-02-15T05:59:54;-1.10;99.90
21744;DHT22;11034;48.556;9.342;2023-02-15T06:02:22;-1.30;99.90
21744;DHT22;11034;48.556;9.342;2023-02-15T06:04:52;-1.50;99.90
21744;DHT22;11034;48.556;9.342;2023-02-15T06:07:20;-1.70;99.90
21744;DHT22;11034;48.556;9.342;2023-02-15T06:09:48;-1.70;99.90
21744;DHT22;11034;48.556;9.342;2023-02-15T06:12:16;-1.70;99.90
21744;DHT22;11034;48.556;9.342;2023-02-15T06:14:44;-1.80;99.90
21744;DHT22;11034;48.556;9.342;2023-02-15T06:17:12;-1.80;99.90
21744;DHT22;11034;48.556;9.342;2023-02-15T06:19:40;-1.70;99.90
21744;DHT22;11034;48.556;9.342;2023-02-15T06:22:09;-1.80;99.90
21744;DHT22;11034;48.556;9.342;2023-02-15T06:24:37;-1.70;99.90
21744;DHT22;11034;48.556;9.342;2023-02-15T06:27:05;-1.60;99.90
21744;DHT22;11034;48.556;9.342;2023-02-15T06:29:33;-1.60;99.90
21744;DHT22;11034;48.556;9.342;2023-02-15T06:32:01;-1.50;99.90
21744;DHT22;11034;48.556;9.342;2023-02-15T06:34:29;-1.50;99.90
21744;DHT22;11034;48.556;9.342;2023-02-15T06:36:57;-1.50;99.90
21744;DHT22;11034;48.556;9.342;2023-02-15T06:39:27;-1.60;99.90
21744;DHT22;11034;48.556;9.342;2023-02-15T06:41:55;-1.60;99.90
21744;DHT22;11034;48.556;9.342;2023-02-15T06:44:23;-1.70;99.90
21744;DHT22;11034;48.556;9.342;2023-02-15T06:46:51;-1.80;99.90
21744;DHT22;11034;48.556;9.342;2023-02-15T06:49:19;-1.80;99.90
21744;DHT22;11034;48.556;9.342;2023-02-15T06:51:47;-1.90;99.90
21744;DHT22;11034;48.556;9.342;2023-02-15T06:54:15;-1.90;99.90
21744;DHT22;11034;48.556;9.342;2023-02-15T06:56:44;-1.90;99.90
21744;DHT22;11034;48.556;9.342;2023-02-15T06:59:12;-1.90;99.90
21744;DHT22;11034;48.556;9.342;2023-02-15T07:01:40;-1.90;99.90
21744;DHT22;11034;48.556;9.342;2023-02-15T07:04:08;-1.80;99.90
21744;DHT22;11034;48.556;9.342;2023-02-15T07:06:36;-1.70;99.90
21744;DHT22;11034;48.556;9.342;2023-02-15T07:09:04;-1.60;99.90
21744;DHT22;11034;48.556;9.342;2023-02-15T07:11:32;-1.50;99.90
21744;DHT22;11034;48.556;9.342;2023-02-15T07:14:19;-1.40;99.90
21744;DHT22;11034;48.556;9.342;2023-02-15T07:16:47;-1.40;99.90
21744;DHT22;11034;48.556;9.342;2023-02-15T07:19:15;-1.30;99.90
21744;DHT22;11034;48.556;9.342;2023-02-15T07:21:43;-1.20;99.90
21744;DHT22;11034;48.556;9.342;2023-02-15T07:24:12;-1.10;99.90
21744;DHT22;11034;48.556;9.342;2023-02-15T07:26:40;-1.00;99.90
21744;DHT22;11034;48.556;9.342;2023-02-15T07:29:08;-0.90;99.90
21744;DHT22;11034;48.556;9.342;2023-02-15T07:31:37;-0.80;99.90
21744;DHT22;11034;48.556;9.342;2023-02-15T07:34:06;-0.70;99.90
21744;DHT22;11034;48.556;9.342;2023-02-15T07:36:34;-0.70;99.90
21744;DHT22;11034;48.556;9.342;2023-02-15T07:39:02;-0.60;99.90
21744;DHT22;11034;48.556;9.342;2023-02-15T07:41:30;-0.50;99.90
21744;DHT22;11034;48.556;9.342;2023-02-15T07:43:58;-0.40;99.90
21744;DHT22;11034;48.556;9.342;2023-02-15T15:02:43;9.40;99.90
21744;DHT22;11034;48.556;9.342;2023-02-15T15:05:19;9.30;99.90
21744;DHT22;11034;48.556;9.342;2023-02-15T15:07:49;9.20;99.90
21744;DHT22;11034;48.556;9.342;2023-02-15T15:10:39;9.10;99.90
21744;DHT22;11034;48.556;9.342;2023-02-15T15:13:36;9.10;99.90
21744;DHT22;11034;48.556;9.342;2023-02-15T15:19:11;9.00;99.90
21744;DHT22;11034;48.556;9.342;2023-02-15T15:21:53;8.90;99.90
21744;DHT22;11034;48.556;9.342;2023-02-15T15:24:47;8.80;99.90
21744;DHT22;11034;48.556;9.342;2023-02-15T15:27:47;8.70;99.90
21744;DHT22;11034;48.556;9.342;2023-02-15T15:33:53;8.40;99.90
21744;DHT22;11034;48.556;9.342;2023-02-15T15:42:59;8.30;99.90
21744;DHT22;11034;48.556;9.342;2023-02-15T15:46:04;8.10;99.90
21744;DHT22;11034;48.556;9.342;2023-02-15T15:48:37;7.80;99.90
21744;DHT22;11034;48.556;9.342;2023-02-15T15:51:10;7.60;99.90
21744;DHT22;11034;48.556;9.342;2023-02-15T15:53:41;7.40;99.90
21744;DHT22;11034;48.556;9.342;2023-02-15T15:56:16;7.30;99.90
21744;DHT22;11034;48.556;9.342;2023-02-15T15:58:50;7.10;99.90
21744;DHT22;11034;48.556;9.342;2023-02-15T16:01:26;6.90;99.90
21744;DHT22;11034;48.556;9.342;2023-02-15T16:03:56;6.70;99.90
21744;DHT22;11034;48.556;9.342;2023-02-15T16:06:29;6.50;99.90
21744;DHT22;11034;48.556;9.342;2023-02-15T16:09:08;6.40;99.90
21744;DHT22;11034;48.556;9.342;2023-02-15T16:11:39;6.30;99.90
21744;DHT22;11034;48.556;9.342;2023-02-15T16:14:14;6.30;99.90
21744;DHT22;11034;48.556;9.342;2023-02-15T16:16:49;6.20;99.90
21744;DHT22;11034;48.556;9.342;2023-02-15T16:19:21;6.10;99.90
21744;DHT22;11034;48.556;9.342;2023-02-15T16:21:50;6.00;99.90
21744;DHT22;11034;48.556;9.342;2023-02-15T16:24:48;5.90;99.90
21744;DHT22;11034;48.556;9.342;2023-02-15T16:27:42;5.80;99.90
21744;DHT22;11034;48.556;9.342;2023-02-15T16:30:25;5.70;99.90
21744;DHT22;11034;48.556;9.342;2023-02-15T16:32:54;5.70;99.90
21744;DHT22;11034;48.556;9.342;2023-02-15T16:35:22;5.60;99.90
21744;DHT22;11034;48.556;9.342;2023-02-15T16:37:51;5.50;99.90
21744;DHT22;11034;48.556;9.342;2023-02-15T16:40:40;5.40;99.90
21744;DHT22;11034;48.556;9.342;2023-02-15T16:43:16;5.50;99.90
21744;DHT22;11034;48.556;9.342;2023-02-15T16:45:44;5.50;99.90
21744;DHT22;11034;48.556;9.342;2023-02-15T16:48:19;5.50;99.90
21744;DHT22;11034;48.556;9.342;2023-02-15T16:50:51;5.50;99.90
21744;DHT22;11034;48.556;9.342;2023-02-15T16:53:22;5.40;99.90
21744;DHT22;11034;48.556;9.342;2023-02-15T16:55:53;5.30;99.90
21744;DHT22;11034;48.556;9.342;2023-02-15T16:58:27;5.20;99.90
21744;DHT22;11034;48.556;9.342;2023-02-15T17:00:58;5.40;99.90
21744;DHT22;11034;48.556;9.342;2023-02-15T17:03:27;5.40;99.90
21744;DHT22;11034;48.556;9.342;2023-02-15T17:05:57;5.50;99.90
21744;DHT22;11034;48.556;9.342;2023-02-15T17:08:29;5.50;99.90
21744;DHT22;11034;48.556;9.342;2023-02-15T17:11:14;5.60;99.90
21744;DHT22;11034;48.556;9.342;2023-02-15T17:14:16;5.40;99.90
21744;DHT22;11034;48.556;9.342;2023-02-15T17:16:49;5.20;99.90
21744;DHT22;11034;48.556;9.342;2023-02-15T17:19:21;5.10;99.90
21744;DHT22;11034;48.556;9.342;2023-02-15T17:21:52;4.90;99.90
21744;DHT22;11034;48.556;9.342;2023-02-15T17:24:25;4.90;99.90
21744;DHT22;11034;48.556;9.342;2023-02-15T17:26:58;4.80;99.90
21744;DHT22;11034;48.556;9.342;2023-02-15T17:29:33;4.80;99.90
21744;DHT22;11034;48.556;9.342;2023-02-15T17:32:02;4.70;99.90
21744;DHT22;11034;48.556;9.342;2023-02-15T17:34:43;4.60;99.90
21744;DHT22;11034;48.556;9.342;2023-02-15T17:37:12;4.50;99.90
21744;DHT22;11034;48.556;9.342;2023-02-15T17:39:41;4.50;99.90
21744;DHT22;11034;48.556;9.342;2023-02-15T17:42:09;4.40;99.90
21744;DHT22;11034;48.556;9.342;2023-02-15T17:44:38;4.30;99.90
21744;DHT22;11034;48.556;9.342;2023-02-15T17:47:06;4.30;99.90
21744;DHT22;11034;48.556;9.342;2023-02-15T17:49:34;4.30;99.90
21744;DHT22;11034;48.556;9.342;2023-02-15T17:52:04;4.40;99.90
21744;DHT22;11034;48.556;9.342;2023-02-15T17:54:32;4.40;99.90
21744;DHT22;11034;48.556;9.342;2023-02-15T17:57:17;4.40;99.90
21744;DHT22;11034;48.556;9.342;2023-02-15T17:59:46;4.30;99.90
21744;DHT22;11034;48.556;9.342;2023-02-15T18:02:34;4.20;99.90
21744;DHT22;11034;48.556;9.342;2023-02-15T18:05:20;4.10;99.90
21744;DHT22;11034;48.556;9.342;2023-02-15T18:08:11;4.00;99.90
21744;DHT22;11034;48.556;9.342;2023-02-15T18:10:57;4.00;99.90
21744;DHT22;11034;48.556;9.342;2023-02-15T18:13:42;4.00;99.90
21744;DHT22;11034;48.556;9.342;2023-02-15T18:16:14;4.10;99.90
21744;DHT22;11034;48.556;9.342;2023-02-15T18:18:43;4.20;99.90
21744;DHT22;11034;48.556;9.342;2023-02-15T18:21:12;4.20;99.90
21744;DHT22;11034;48.556;9.342;2023-02-15T18:23:40;4.30;99.90
21744;DHT22;11034;48.556;9.342;2023-02-15T18:26:15;4.50;99.90
21744;DHT22;11034;48.556;9.342;2023-02-15T18:28:45;4.90;99.90
21744;DHT22;11034;48.556;9.342;2023-02-15T18:31:16;5.30;99.90
21744;DHT22;11034;48.556;9.342;2023-02-15T18:33:47;5.80;99.90
21744;DHT22;11034;48.556;9.342;2023-02-15T18:36:21;5.90;99.90
21744;DHT22;11034;48.556;9.342;2023-02-15T18:38:50;5.90;99.90
21744;DHT22;11034;48.556;9.342;2023-02-15T18:41:19;6.00;99.90
21744;DHT22;11034;48.556;9.342;2023-02-15T18:43:49;6.00;99.90
21744;DHT22;11034;48.556;9.342;2023-02-15T18:46:20;6.10;99.90
21744;DHT22;11034;48.556;9.342;2023-02-15T18:48:48;6.30;99.90
21744;DHT22;11034;48.556;9.342;2023-02-15T18:51:21;6.80;99.90
21744;DHT22;11034;48.556;9.342;2023-02-15T18:54:03;7.20;99.90
21744;DHT22;11034;48.556;9.342;2023-02-15T18:56:35;7.70;99.90
21744;DHT22;11034;48.556;9.342;2023-02-15T18:59:03;7.90;99.90
21744;DHT22;11034;48.556;9.342;2023-02-15T19:01:32;8.20;99.90
21744;DHT22;11034;48.556;9.342;2023-02-15T19:04:00;8.20;99.90
21744;DHT22;11034;48.556;9.342;2023-02-15T19:06:29;8.20;99.90
21744;DHT22;11034;48.556;9.342;2023-02-15T19:08:57;8.20;99.90
21744;DHT22;11034;48.556;9.342;2023-02-15T19:11:28;8.20;99.90
21744;DHT22;11034;48.556;9.342;2023-02-15T19:13:56;8.30;99.90
21744;DHT22;11034;48.556;9.342;2023-02-15T19:16:29;8.20;99.90
21744;DHT22;11034;48.556;9.342;2023-02-15T19:18:59;8.00;99.90
21744;DHT22;11034;48.556;9.342;2023-02-15T19:21:29;7.80;99.90
21744;DHT22;11034;48.556;9.342;2023-02-15T19:24:00;7.50;99.90
21744;DHT22;11034;48.556;9.342;2023-02-15T19:26:30;7.30;99.90
21744;DHT22;11034;48.556;9.342;2023-02-15T19:29:13;7.20;99.90
21744;DHT22;11034;48.556;9.342;2023-02-15T19:31:42;7.00;99.90
21744;DHT22;11034;48.556;9.342;2023-02-15T19:34:15;6.70;99.90
21744;DHT22;11034;48.556;9.342;2023-02-15T19:36:44;6.50;99.90
21744;DHT22;11034;48.556;9.342;2023-02-15T19:39:23;6.50;99.90
21744;DHT22;11034;48.556;9.342;2023-02-15T19:41:52;6.60;99.90
21744;DHT22;11034;48.556;9.342;2023-02-15T19:44:20;6.90;99.90
21744;DHT22;11034;48.556;9.342;2023-02-15T19:46:48;7.20;99.90
21744;DHT22;11034;48.556;9.342;2023-02-15T19:49:18;7.70;99.90
21744;DHT22;11034;48.556;9.342;2023-02-15T19:51:46;7.80;99.90
21744;DHT22;11034;48.556;9.342;2023-02-15T19:54:27;7.80;99.90
21744;DHT22;11034;48.556;9.342;2023-02-15T19:56:56;7.70;99.90
21744;DHT22;11034;48.556;9.342;2023-02-15T19:59:26;7.90;99.90
21744;DHT22;11034;48.556;9.342;2023-02-15T20:01:56;7.90;99.90
21744;DHT22;11034;48.556;9.342;2023-02-15T20:04:25;7.90;99.90
21744;DHT22;11034;48.556;9.342;2023-02-15T20:06:55;7.90;99.90
21744;DHT22;11034;48.556;9.342;2023-02-15T20:09:27;8.00;99.90
21744;DHT22;11034;48.556;9.342;2023-02-15T20:11:56;8.10;99.90
21744;DHT22;11034;48.556;9.342;2023-02-15T20:14:24;8.30;99.90
21744;DHT22;11034;48.556;9.342;2023-02-15T20:16:52;8.30;99.90
21744;DHT22;11034;48.556;9.342;2023-02-15T20:19:20;8.20;99.90
21744;DHT22;11034;48.556;9.342;2023-02-15T20:21:49;8.20;99.90
21744;DHT22;11034;48.556;9.342;2023-02-15T20:24:21;8.30;99.90
21744;DHT22;11034;48.556;9.342;2023-02-15T20:26:49;8.40;99.90
21744;DHT22;11034;48.556;9.342;2023-02-15T20:29:17;8.50;99.90
21744;DHT22;11034;48.556;9.342;2023-02-15T20:31:45;8.70;99.90
21744;DHT22;11034;48.556;9.342;2023-02-15T20:34:14;8.70;99.90
21744;DHT22;11034;48.556;9.342;2023-02-15T20:36:42;8.80;99.90
21744;DHT22;11034;48.556;9.342;2023-02-15T20:39:14;8.70;99.90
21744;DHT22;11034;48.556;9.342;2023-02-15T20:41:43;8.70;99.90
21744;DHT22;11034;48.556;9.342;2023-02-15T20:44:20;8.70;99.90
21744;DHT22;11034;48.556;9.342;2023-02-15T20:46:51;8.70;99.90
21744;DHT22;11034;48.556;9.342;2023-02-15T20:49:21;8.60;99.90
21744;DHT22;11034;48.556;9.342;2023-02-15T20:51:51;8.40;99.90
21744;DHT22;11034;48.556;9.342;2023-02-15T20:54:22;8.30;99.90
21744;DHT22;11034;48.556;9.342;2023-02-15T20:56:50;8.00;99.90
21744;DHT22;11034;48.556;9.342;2023-02-15T20:59:25;7.80;99.90
